• Join FlightAware (Why Join?)
  • Login
  • US Flag 
07:17AM EDT


 

Airport Tracker/Info


-or-


 

Live Flight TrackerFlight Track Log ✈ CPT7773 ✈ 01-Jul-2013 ✈ KCOD - KCPR

Flight Track Log - Related Links

Times and Time Zones

All times are in EDT time to prevent confusion due to time zone crossing. See the CPT7773 flight status page for this flight to view local times or setup timezone preferences in your user account.

Time Position Orientation Groundspeed Altitude Reporting Facility
EDT Latitude Longitude Course Direction KTS MPH feet Rate Location/Type
08:14PM 44.3770 -108.7043 120° Southeast  Level FlightAware Approximate
08:15PM 44.3549 -108.6510 120° Southeast  Level FlightAware Approximate
08:16PM 44.3327 -108.5977 120° Southeast  Level FlightAware Approximate
08:17PM 44.3105 -108.5445 120° Southeast  Level FlightAware Approximate
08:18PM 44.2882 -108.4913 120° Southeast  Level FlightAware Approximate
08:19PM 44.2660 -108.4381 120° Southeast  Level FlightAware Approximate
08:20PM 44.2415 -108.3873 133° Southeast  Level FlightAware Approximate
08:21PM 44.2116 -108.3422 133° Southeast  Level FlightAware Approximate
08:22PM 44.1815 -108.2971 133° Southeast  Level FlightAware Approximate
08:23PM 44.1515 -108.2521 133° Southeast  Level FlightAware Approximate
08:24PM 44.1215 -108.2072 133° Southeast  Level FlightAware Approximate
08:25PM 44.0915 -108.1621 133° Southeast  Level FlightAware Approximate
08:26PM 44.0616 -108.1171 133° Southeast  Level FlightAware Approximate
08:27PM 44.0316 -108.0721 133° Southeast  Level FlightAware Approximate
08:28PM 44.0016 -108.0272 133° Southeast  Level FlightAware Approximate
08:29PM 43.9716 -107.9823 133° Southeast  Level FlightAware Approximate
08:30PM 43.9438 -107.9352 120° Southeast  Level FlightAware Approximate
08:31PM 43.9218 -107.8821 120° Southeast  Level FlightAware Approximate
08:32PM 43.8997 -107.8292 120° Southeast  Level FlightAware Approximate
08:33PM 43.8776 -107.7762 120° Southeast  Level FlightAware Approximate
08:34PM 43.8530 -107.7257 128° Southeast  Level FlightAware Approximate
08:35PM 43.8259 -107.6775 128° Southeast  Level FlightAware Approximate
08:36PM 43.7988 -107.6293 128° Southeast  Level FlightAware Approximate
08:37PM 43.7716 -107.5812 128° Southeast  Level FlightAware Approximate
08:38PM 43.7444 -107.5331 128° Southeast  Level FlightAware Approximate
08:39PM 43.7173 -107.4851 128° Southeast  Level FlightAware Approximate
08:40PM 43.6900 -107.4371 128° Southeast  Level FlightAware Approximate
08:41PM 43.6628 -107.3892 128° Southeast  Level FlightAware Approximate
08:42PM 43.6367 -107.3401 125° Southeast  Level FlightAware Approximate
08:43PM 43.6117 -107.2900 125° Southeast  Level FlightAware Approximate
08:44PM 43.5866 -107.2399 125° Southeast  Level FlightAware Approximate
08:45PM 43.5617 -107.1898 124° Southeast  Level FlightAware Approximate
08:46PM 43.5368 -107.1396 124° Southeast  Level FlightAware Approximate
08:46PM 43.4869 -107.0197 125° Southeast 189 217 11,000  Level Denver Center
08:47PM 43.5118 -107.0895 124° Southeast  Level FlightAware Approximate
08:47PM 43.4597 -106.9739 129° Southeast 164 189 11,000  Level Denver Center
08:48PM 43.4868 -107.0394 125° Southeast  Level FlightAware Approximate
08:48PM 43.4317 -106.9189 125° Southeast 160 184 11,000  Level Denver Center
08:49PM 43.4618 -106.9894 125° Southeast  Level FlightAware Approximate
08:49PM 43.4069 -106.8717 126° Southeast 159 183 11,100  Level Denver Center
08:50PM 43.4368 -106.9394 125° Southeast  Level FlightAware Approximate
08:50PM 43.3653 -106.8325 146° Southeast 157 181 10,800  Level Denver Center
08:51PM 43.4117 -106.8894 125° Southeast  Level FlightAware Approximate
08:51PM 43.3214 -106.7997 151° Southeast 168 193 10,400  Level Denver Center
08:52PM 43.2781 -106.7672 151° Southeast 177 204 10,000 -480 Descending Denver Center
08:53PM 43.2303 -106.7281 149° Southeast 180 207 9,500 -480 Descending Denver Center
08:54PM 43.1900 -106.6908 146° Southeast 181 208 9,100 -540 Descending Denver Center
08:55PM 43.1406 -106.6589 155° Southeast 177 204 8,500 -540 Descending Denver Center
08:56PM 43.0956 -106.6353 159° South 178 205 8,100 -540 Descending Denver Center
08:57PM 43.0417 -106.6086 160° South 180 207 7,500 -480 Descending Denver Center
08:58PM 42.9950 -106.5842 159° South 184 212 7,200 -240 Descending Denver Center
08:59PM 42.9433 -106.5592 160° South 184 212 7,100 -120 Descending Denver Center
09:01PM 42.9192 -106.4984 118° Southeast  Level FlightAware Approximate
09:08PM 42.9080 -106.4644 144° Southeast  Level Estimated
09:09PM 42.9080 -106.4644 144° Southeast  Level Estimated
09:10PM 42.9080 -106.4644 144° Southeast  Level Estimated
09:11PM 42.9080 -106.4644 144° Southeast  Level Estimated
09:12PM 42.9080 -106.4644 144° Southeast  Level Estimated